Time;durP1;ratioP1;P1;durP2;ratioP2;P2;SDS_P1;SDS_P2;PMS_P1;PMS_P2;Temp;Humidity;BMP_temperature;BMP_pressure;BME280_temperature;BME280_humidity;BME280_pressure;Samples;Min_cycle;Max_cycle;Signal;HPM_P1;HPM_P2
2024/04/18 00:54:18;;;;;;;5.85;4.38;;;5.90;99.90;;;;;;6251754;21;20268;-89
2024/04/18 00:56:45;;;;;;;7.93;4.57;;;6.00;99.90;;;;;;5236991;27;20346;-88
2024/04/18 00:59:15;;;;;;;6.25;4.47;;;6.00;99.90;;;;;;5232082;27;20237;-88
2024/04/18 01:01:43;;;;;;;6.47;4.53;;;6.00;99.90;;;;;;5230773;27;20348;-88
2024/04/18 01:04:13;;;;;;;6.68;4.57;;;6.00;99.90;;;;;;5235401;27;20248;-88
2024/04/18 01:06:40;;;;;;;5.68;4.10;;;6.00;99.90;;;;;;5242776;27;20244;-89
2024/04/18 01:09:09;;;;;;;6.35;4.53;;;6.00;99.90;;;;;;5245011;27;20698;-88
2024/04/18 01:11:38;;;;;;;8.73;4.43;;;6.00;99.90;;;;;;5238892;27;20268;-88
2024/04/18 01:14:10;;;;;;;6.50;4.32;;;6.00;99.90;;;;;;5244485;27;20298;-88
2024/04/18 01:16:37;;;;;;;5.25;3.75;;;6.00;99.90;;;;;;5245071;27;20726;-88
2024/04/18 01:19:07;;;;;;;5.70;4.40;;;6.10;99.90;;;;;;5244794;27;20243;-88
2024/04/18 01:21:33;;;;;;;5.47;3.90;;;6.10;99.90;;;;;;5245713;27;20342;-88
2024/04/18 01:24:02;;;;;;;6.20;4.63;;;6.10;99.90;;;;;;5245331;27;20286;-88
2024/04/18 01:26:30;;;;;;;5.55;3.53;;;6.10;99.90;;;;;;5245243;27;20227;-87
2024/04/18 01:28:59;;;;;;;6.72;3.60;;;6.10;99.90;;;;;;5245351;27;20236;-88
2024/04/18 01:31:26;;;;;;;4.53;3.38;;;6.20;99.90;;;;;;5245268;27;20396;-88
2024/04/18 01:33:57;;;;;;;5.75;3.78;;;6.20;99.90;;;;;;5245429;27;20233;-88
2024/04/18 01:36:23;;;;;;;5.82;4.13;;;6.20;99.90;;;;;;5228487;27;20281;-88
2024/04/18 01:38:52;;;;;;;4.53;2.90;;;6.20;99.90;;;;;;5248893;27;20252;-88
2024/04/18 01:41:20;;;;;;;5.70;3.53;;;6.40;99.90;;;;;;5245893;27;20256;-88
2024/04/18 01:43:53;;;;;;;4.15;3.25;;;6.30;99.90;;;;;;5255949;27;20319;-88
2024/04/18 01:46:19;;;;;;;6.60;3.10;;;6.20;99.90;;;;;;5244501;27;20320;-88
2024/04/18 01:48:48;;;;;;;4.65;3.00;;;6.30;99.90;;;;;;5244926;27;20258;-87
2024/04/18 01:51:15;;;;;;;5.65;2.92;;;6.20;99.90;;;;;;5256168;27;20256;-88
2024/04/18 01:53:43;;;;;;;7.53;3.08;;;6.30;99.90;;;;;;5256694;27;20299;-89
2024/04/18 01:56:10;;;;;;;4.10;2.85;;;6.40;99.90;;;;;;5239300;27;20842;-88
2024/04/18 01:58:38;;;;;;;6.28;2.75;;;6.30;99.90;;;;;;5244027;27;20829;-88
2024/04/18 02:01:07;;;;;;;5.20;2.90;;;6.30;99.90;;;;;;5240888;27;20296;-88
2024/04/18 02:03:36;;;;;;;6.40;3.10;;;6.20;99.90;;;;;;5256453;27;20672;-88
2024/04/18 02:06:02;;;;;;;3.45;2.53;;;6.30;99.90;;;;;;5256816;27;20304;-88
2024/04/18 02:08:31;;;;;;;4.60;2.65;;;6.30;99.90;;;;;;5257258;27;20280;-87
2024/04/18 02:10:57;;;;;;;4.65;2.70;;;6.30;99.90;;;;;;5243450;27;20358;-87
2024/04/18 02:13:26;;;;;;;3.47;2.50;;;6.30;99.90;;;;;;5251643;27;20842;-88
2024/04/18 02:15:52;;;;;;;3.15;2.42;;;6.40;99.90;;;;;;5254918;27;20315;-88
2024/04/18 02:18:24;;;;;;;5.70;2.63;;;6.30;99.90;;;;;;5246514;27;20248;-88
2024/04/18 02:20:50;;;;;;;3.30;2.55;;;6.30;99.90;;;;;;5245030;27;20232;-88
2024/04/18 02:23:22;;;;;;;3.22;2.40;;;6.30;99.90;;;;;;5224551;27;20315;-87
2024/04/18 02:25:48;;;;;;;5.50;2.80;;;6.20;99.90;;;;;;5244304;27;20576;-88
2024/04/18 02:28:17;;;;;;;3.17;2.60;;;6.20;99.90;;;;;;5237544;27;20287;-88
2024/04/18 02:30:43;;;;;;;4.47;2.72;;;6.30;99.90;;;;;;5244873;27;20236;-89
2024/04/18 02:33:12;;;;;;;3.42;2.40;;;6.30;99.90;;;;;;5244265;27;20244;-89
2024/04/18 02:35:41;;;;;;;4.03;2.58;;;6.20;99.90;;;;;;5244207;27;20715;-88
2024/04/18 02:38:10;;;;;;;3.13;2.20;;;6.20;99.90;;;;;;5244397;27;20334;-89
2024/04/18 02:40:38;;;;;;;3.88;2.42;;;6.20;99.90;;;;;;5243505;27;20326;-89
2024/04/18 02:43:05;;;;;;;3.47;2.42;;;6.30;99.90;;;;;;5244211;27;20235;-88
2024/04/18 02:45:33;;;;;;;3.15;2.40;;;6.40;99.90;;;;;;5244101;27;20657;-89
2024/04/18 02:48:00;;;;;;;3.53;2.42;;;6.40;99.90;;;;;;5243868;27;20296;-87
2024/04/18 02:50:28;;;;;;;3.90;2.80;;;6.40;99.90;;;;;;5230452;27;20283;-89
2024/04/18 02:52:57;;;;;;;5.38;2.83;;;6.30;99.90;;;;;;5244319;27;20320;-89
2024/04/18 02:55:26;;;;;;;3.25;2.25;;;6.30;99.90;;;;;;5243688;27;20679;-88
2024/04/18 02:57:52;;;;;;;3.38;2.67;;;6.30;99.90;;;;;;5244035;27;20248;-89
2024/04/18 03:00:21;;;;;;;4.93;2.65;;;6.40;99.90;;;;;;5244353;27;20287;-89
2024/04/18 03:02:47;;;;;;;3.55;2.53;;;6.30;99.90;;;;;;5243728;27;20726;-89
2024/04/18 03:05:19;;;;;;;5.70;2.80;;;6.30;99.90;;;;;;5230394;27;20260;-88
2024/04/18 03:07:46;;;;;;;3.25;2.55;;;6.20;99.90;;;;;;5243920;27;20282;-89
2024/04/18 03:10:17;;;;;;;3.63;2.65;;;6.30;99.90;;;;;;5241352;27;20326;-89
2024/04/18 03:12:43;;;;;;;3.53;2.55;;;6.40;99.90;;;;;;5234482;27;20271;-89
2024/04/18 03:15:12;;;;;;;4.28;2.50;;;6.30;99.90;;;;;;5244114;27;20345;-89
2024/04/18 03:17:38;;;;;;;3.67;2.60;;;6.40;99.90;;;;;;5243669;27;20329;-89
2024/04/18 03:20:08;;;;;;;3.60;2.50;;;6.40;99.90;;;;;;5243944;27;20232;-88
2024/04/18 03:22:34;;;;;;;4.20;2.97;;;6.50;99.90;;;;;;5244125;27;20251;-89
2024/04/18 03:25:04;;;;;;;4.82;2.78;;;6.50;99.90;;;;;;5243600;27;20598;-89
2024/04/18 03:27:36;;;;;;;3.97;2.92;;;6.40;99.90;;;;;;5230601;27;20240;-89
2024/04/18 03:30:05;;;;;;;4.72;2.80;;;6.40;99.90;;;;;;5243526;27;20256;-88
2024/04/18 03:32:32;;;;;;;3.20;2.83;;;6.30;99.90;;;;;;5244354;27;20326;-89
2024/04/18 03:35:00;;;;;;;6.00;3.33;;;6.30;99.90;;;;;;5244337;27;20248;-88
2024/04/18 03:37:29;;;;;;;3.75;3.22;;;6.30;99.90;;;;;;5243289;27;20326;-88
2024/04/18 03:39:58;;;;;;;4.63;3.28;;;6.30;99.90;;;;;;5243750;27;20342;-89
2024/04/18 03:42:27;;;;;;;6.05;2.83;;;6.20;99.90;;;;;;5223922;27;20776;-89
2024/04/18 03:44:59;;;;;;;8.38;3.22;;;6.30;99.90;;;;;;5238804;27;20776;-89
2024/04/18 03:47:28;;;;;;;7.57;3.30;;;6.20;99.90;;;;;;5230371;27;20228;-89
2024/04/18 03:49:57;;;;;;;6.10;3.63;;;6.30;99.90;;;;;;5244089;27;20331;-89
2024/04/18 03:52:23;;;;;;;4.95;3.17;;;6.30;99.90;;;;;;5221411;27;20313;-89
2024/04/18 03:54:52;;;;;;;4.45;3.50;;;6.30;99.90;;;;;;5231614;27;20240;-89
2024/04/18 03:57:18;;;;;;;4.03;3.38;;;6.30;99.90;;;;;;5246466;27;20295;-89
2024/04/18 03:59:47;;;;;;;6.80;4.65;;;6.30;99.90;;;;;;5246621;27;20232;-88
2024/04/18 04:02:16;;;;;;;7.32;4.20;;;6.20;99.90;;;;;;5246989;27;20338;-88
2024/04/18 04:04:48;;;;;;;6.00;4.55;;;6.20;99.90;;;;;;5245973;27;20239;-88
2024/04/18 04:07:14;;;;;;;6.53;4.10;;;6.20;99.90;;;;;;5246406;27;20260;-89
2024/04/18 04:09:43;;;;;;;6.30;4.10;;;6.20;99.90;;;;;;5247239;27;20762;-88
2024/04/18 04:12:09;;;;;;;4.35;3.47;;;6.20;99.90;;;;;;5246387;27;20299;-88
2024/04/18 04:14:38;;;;;;;7.22;3.72;;;6.30;99.90;;;;;;5245950;27;20256;-89
2024/04/18 04:17:04;;;;;;;5.53;3.90;;;6.30;99.90;;;;;;5246584;27;20232;-88
2024/04/18 04:19:36;;;;;;;5.38;4.00;;;6.30;99.90;;;;;;5246528;27;20240;-88
2024/04/18 04:22:02;;;;;;;5.43;4.25;;;6.30;99.90;;;;;;5246699;27;20256;-88
2024/04/18 04:24:31;;;;;;;5.25;4.25;;;6.40;99.90;;;;;;5240321;27;20270;-87
2024/04/18 04:26:57;;;;;;;5.47;4.40;;;6.30;99.90;;;;;;5227755;27;20710;-87
2024/04/18 04:29:26;;;;;;;8.32;4.88;;;6.30;99.90;;;;;;5246112;27;20240;-88
2024/04/18 04:31:52;;;;;;;6.28;4.88;;;6.30;99.90;;;;;;5238588;27;20296;-88
2024/04/18 04:34:21;;;;;;;7.93;5.00;;;6.20;99.90;;;;;;5244857;27;20294;-89
2024/04/18 04:36:50;;;;;;;8.60;5.05;;;6.20;99.90;;;;;;5238564;27;20375;-88
2024/04/18 04:39:18;;;;;;;6.90;4.57;;;6.30;99.90;;;;;;5245462;27;20236;-88
2024/04/18 04:41:45;;;;;;;5.90;4.80;;;6.30;99.90;;;;;;5254612;27;20248;-86
2024/04/18 04:44:13;;;;;;;8.45;4.93;;;6.30;99.90;;;;;;5254143;27;20255;-88
2024/04/18 04:46:40;;;;;;;6.13;4.28;;;6.30;99.90;;;;;;5245414;27;20240;-86
2024/04/18 04:49:08;;;;;;;8.35;4.45;;;6.30;99.90;;;;;;5245621;27;20256;-88
2024/04/18 04:51:35;;;;;;;8.02;5.35;;;6.30;99.90;;;;;;5245858;27;20347;-87
2024/04/18 04:54:06;;;;;;;9.57;5.13;;;6.40;99.90;;;;;;5245375;27;21630;-87
2024/04/18 04:56:33;;;;;;;8.32;5.32;;;6.40;99.90;;;;;;5229150;27;20384;-88
2024/04/18 04:59:01;;;;;;;6.60;4.75;;;6.50;99.90;;;;;;5245369;27;20320;-86
2024/04/18 05:01:28;;;;;;;6.95;5.05;;;6.60;99.90;;;;;;5238410;27;20371;-86
2024/04/18 05:03:56;;;;;;;8.23;5.20;;;6.60;99.90;;;;;;5243641;27;20848;-87
2024/04/18 05:06:23;;;;;;;6.18;4.93;;;6.60;99.90;;;;;;5236156;27;20721;-86
2024/04/18 05:08:51;;;;;;;7.43;5.22;;;6.50;99.90;;;;;;5245625;27;20267;-87
2024/04/18 05:11:20;;;;;;;8.30;5.82;;;6.40;99.90;;;;;;5246259;27;20252;-86
2024/04/18 05:13:49;;;;;;;9.73;5.43;;;6.40;99.90;;;;;;5245651;27;20812;-87
2024/04/18 05:16:15;;;;;;;8.45;5.25;;;6.40;99.90;;;;;;5244797;27;20275;-86
2024/04/18 05:18:45;;;;;;;7.75;4.97;;;6.50;99.90;;;;;;5244092;27;20653;-87
2024/04/18 05:21:11;;;;;;;7.72;5.05;;;6.60;99.90;;;;;;5241505;27;20339;-88
2024/04/18 05:23:40;;;;;;;7.40;5.10;;;6.70;99.90;;;;;;5236277;27;20256;-88
2024/04/18 05:26:06;;;;;;;7.13;5.18;;;6.70;99.90;;;;;;5243094;27;20817;-89
2024/04/18 05:31:00;;;;;;;7.78;5.63;;;6.70;99.90;;;;;;5237716;27;20240;-89
2024/04/18 05:31:29;;;;;;;8.68;5.45;;;6.70;99.90;;;;;;5238500;27;20683;-89
2024/04/18 05:33:58;;;;;;;6.90;5.15;;;6.70;99.90;;;;;;5244289;27;20247;-88
2024/04/18 05:36:27;;;;;;;6.97;5.57;;;6.70;99.90;;;;;;5244697;27;20279;-89
2024/04/18 05:38:56;;;;;;;6.07;4.90;;;6.70;99.90;;;;;;5240265;27;20248;-89
2024/04/18 05:41:25;;;;;;;5.72;5.05;;;6.70;99.90;;;;;;5241894;27;20717;-88
2024/04/18 05:43:57;;;;;;;6.75;5.10;;;6.70;99.90;;;;;;5243983;27;20231;-89
2024/04/18 05:46:26;;;;;;;6.30;4.80;;;6.70;99.90;;;;;;5243694;27;20252;-89
2024/04/18 05:48:52;;;;;;;6.40;4.63;;;6.70;99.90;;;;;;5243493;27;20767;-89
2024/04/18 05:51:21;;;;;;;6.05;4.70;;;6.80;99.90;;;;;;5243111;27;20286;-89
2024/04/18 05:53:50;;;;;;;7.18;4.32;;;6.80;99.90;;;;;;5242629;27;20267;-89
2024/04/18 05:56:19;;;;;;;6.20;4.22;;;6.80;99.90;;;;;;5232668;27;20253;-89
2024/04/18 05:58:48;;;;;;;6.63;4.28;;;6.80;99.90;;;;;;5237096;27;20291;-89
2024/04/18 06:01:19;;;;;;;4.65;3.83;;;6.70;99.90;;;;;;5233976;27;20248;-89
2024/04/18 06:03:48;;;;;;;4.95;3.47;;;6.70;99.90;;;;;;5230215;27;20256;-89
2024/04/18 06:06:14;;;;;;;4.18;3.38;;;6.70;99.90;;;;;;5243250;27;20286;-89
2024/04/18 06:08:43;;;;;;;5.20;3.80;;;6.70;99.90;;;;;;5241773;27;20243;-89
2024/04/18 06:11:12;;;;;;;6.22;4.13;;;6.70;99.90;;;;;;5234841;27;20610;-89
2024/04/18 06:13:41;;;;;;;5.55;3.97;;;6.80;99.90;;;;;;5239464;27;20540;-89
2024/04/18 06:16:10;;;;;;;4.88;4.03;;;6.80;99.90;;;;;;5240519;27;20357;-89
2024/04/18 06:18:41;;;;;;;5.07;3.83;;;6.80;99.90;;;;;;5239264;27;20774;-89
2024/04/18 06:21:10;;;;;;;4.43;3.35;;;6.90;99.90;;;;;;5241977;27;20356;-89
2024/04/18 06:23:39;;;;;;;5.38;4.03;;;6.90;99.90;;;;;;5241954;27;20256;-89
2024/04/18 06:26:08;;;;;;;5.55;3.90;;;6.90;99.90;;;;;;5237182;27;20604;-88
2024/04/18 06:28:37;;;;;;;5.72;4.30;;;7.00;99.90;;;;;;5243180;27;20244;-89
2024/04/18 06:31:06;;;;;;;5.85;4.50;;;7.00;99.90;;;;;;5243032;27;20359;-89
2024/04/18 06:33:35;;;;;;;5.43;4.22;;;7.10;99.90;;;;;;5242448;27;20283;-89
2024/04/18 06:36:07;;;;;;;5.03;4.35;;;7.20;99.90;;;;;;5229465;27;20719;-89
2024/04/18 06:38:37;;;;;;;6.22;3.97;;;7.20;99.90;;;;;;5229745;27;20256;-88
2024/04/18 06:41:06;;;;;;;6.35;4.63;;;7.20;99.90;;;;;;5235898;27;20253;-89
2024/04/18 06:43:35;;;;;;;6.57;4.03;;;7.20;99.90;;;;;;5242707;27;20260;-89
2024/04/18 06:46:04;;;;;;;8.35;4.40;;;7.20;99.90;;;;;;5230524;27;20308;-89
2024/04/18 06:48:33;;;;;;;4.65;3.85;;;7.20;99.90;;;;;;5241390;27;20284;-89
2024/04/18 06:51:02;;;;;;;4.80;3.65;;;7.30;99.90;;;;;;5242811;27;20604;-89
2024/04/18 06:53:33;;;;;;;4.60;3.72;;;7.30;99.90;;;;;;5242818;27;20248;-88
2024/04/18 06:56:03;;;;;;;5.38;4.10;;;7.30;99.90;;;;;;5252567;21;20383;-91
2024/04/18 06:58:32;;;;;;;4.70;3.92;;;7.40;99.90;;;;;;5242740;27;20738;-90
2024/04/18 07:01:00;;;;;;;5.05;3.75;;;7.50;99.90;;;;;;5241436;27;20240;-90
2024/04/18 07:03:30;;;;;;;5.63;4.03;;;7.50;99.90;;;;;;5242755;27;20834;-90
2024/04/18 07:05:59;;;;;;;5.18;3.58;;;7.50;99.90;;;;;;5219327;27;20245;-90
2024/04/18 07:08:28;;;;;;;4.68;4.03;;;7.60;99.90;;;;;;5214171;27;20347;-90
2024/04/18 07:11:00;;;;;;;5.97;4.20;;;7.70;99.90;;;;;;5216178;27;20869;-90
2024/04/18 07:13:29;;;;;;;5.72;3.92;;;7.80;99.90;;;;;;5213582;27;20237;-91
2024/04/18 07:15:59;;;;;;;5.55;4.22;;;7.80;99.90;;;;;;5206972;27;20779;-90
2024/04/18 07:18:27;;;;;;;5.65;3.90;;;7.90;99.90;;;;;;5205072;27;20321;-90
2024/04/18 07:20:56;;;;;;;6.53;4.65;;;8.00;99.90;;;;;;5203995;27;20321;-89
2024/04/18 07:23:25;;;;;;;5.43;4.05;;;8.00;99.90;;;;;;5219679;27;20814;-90
2024/04/18 07:25:54;;;;;;;6.72;3.67;;;8.10;99.90;;;;;;5209546;27;20833;-90
2024/04/18 07:28:25;;;;;;;5.32;3.95;;;8.10;99.90;;;;;;5223696;27;20307;-90
2024/04/18 07:30:54;;;;;;;4.72;3.20;;;8.10;99.90;;;;;;5213097;27;20261;-89
2024/04/18 07:33:23;;;;;;;6.50;3.33;;;8.20;99.90;;;;;;5207996;27;20252;-89
2024/04/18 07:35:59;;;;;;;5.00;3.75;;;8.20;99.90;;;;;;5211538;27;20601;-89
2024/04/18 07:38:26;;;;;;;5.68;3.55;;;8.30;99.90;;;;;;5218678;27;20283;-90
2024/04/18 07:40:55;;;;;;;4.15;3.40;;;8.20;99.90;;;;;;5201898;27;20736;-89
2024/04/18 07:43:26;;;;;;;3.42;2.95;;;8.20;99.90;;;;;;5205199;27;20296;-89
2024/04/18 07:45:55;;;;;;;7.43;4.00;;;8.20;99.90;;;;;;5210135;27;20381;-89
2024/04/18 07:48:24;;;;;;;5.95;3.53;;;8.10;99.90;;;;;;5209190;27;20391;-90
2024/04/18 07:50:53;;;;;;;5.38;3.05;;;8.10;99.90;;;;;;5207969;27;20355;-90
2024/04/18 07:53:22;;;;;;;3.83;3.10;;;8.00;99.90;;;;;;5210559;27;20253;-90
2024/04/18 07:55:51;;;;;;;3.85;3.10;;;7.90;99.90;;;;;;5208553;27;20759;-89
2024/04/18 07:58:19;;;;;;;4.40;3.28;;;7.90;99.90;;;;;;5222459;27;20738;-90
2024/04/18 08:00:54;;;;;;;3.70;2.92;;;7.90;99.90;;;;;;5210274;27;20233;-90
2024/04/18 08:03:22;;;;;;;3.65;3.03;;;8.00;99.90;;;;;;5209671;27;20744;-90
2024/04/18 08:05:51;;;;;;;3.30;2.80;;;8.00;99.90;;;;;;5209241;27;20373;-90
2024/04/18 08:08:20;;;;;;;3.10;2.80;;;8.00;99.90;;;;;;5209252;27;20713;-89
2024/04/18 08:10:49;;;;;;;2.83;2.30;;;8.20;99.90;;;;;;5208061;27;20407;-89
2024/04/18 08:13:18;;;;;;;4.60;2.80;;;8.20;99.90;;;;;;5207977;27;20249;-89
2024/04/18 08:15:47;;;;;;;2.85;2.20;;;8.20;99.90;;;;;;5192291;27;20304;-89
2024/04/18 08:18:19;;;;;;;2.28;2.08;;;8.10;99.90;;;;;;5207690;27;20257;-89
2024/04/18 08:20:50;;;;;;;3.00;2.35;;;8.10;99.90;;;;;;5213078;27;20611;-89
2024/04/18 08:23:20;;;;;;;2.83;2.28;;;8.10;99.90;;;;;;5208660;27;20366;-89
2024/04/18 08:25:49;;;;;;;3.13;2.20;;;8.00;99.90;;;;;;5210155;27;20249;-89
2024/04/18 08:28:18;;;;;;;3.65;2.55;;;8.00;99.90;;;;;;5212538;27;20241;-89
2024/04/18 08:30:47;;;;;;;2.90;2.22;;;8.10;99.90;;;;;;5207568;27;20275;-90
2024/04/18 08:33:18;;;;;;;5.85;2.10;;;8.20;99.90;;;;;;5206968;27;20257;-90
2024/04/18 08:35:48;;;;;;;3.03;1.92;;;8.30;99.90;;;;;;5207884;27;20250;-90
2024/04/18 08:38:17;;;;;;;2.67;2.15;;;8.50;99.90;;;;;;5199597;27;20305;-90
2024/04/18 08:40:46;;;;;;;6.65;1.98;;;8.80;99.90;;;;;;5210856;27;20296;-90
2024/04/18 08:43:15;;;;;;;4.35;2.17;;;8.80;99.90;;;;;;5213770;27;20347;-90
2024/04/18 08:45:46;;;;;;;2.80;2.30;;;8.80;99.90;;;;;;5211131;27;20257;-89
2024/04/18 08:48:19;;;;;;;4.18;3.20;;;8.80;99.90;;;;;;5214493;27;20252;-90
2024/04/18 08:50:48;;;;;;;4.60;3.63;;;8.90;99.90;;;;;;5214938;27;20253;-90
2024/04/18 08:53:17;;;;;;;4.82;3.72;;;8.90;99.90;;;;;;5208774;27;20695;-90
2024/04/18 08:55:51;;;;;;;7.68;3.88;;;8.90;99.90;;;;;;5206953;27;20750;-90
2024/04/18 08:58:21;;;;;;;5.70;3.00;;;9.00;99.90;;;;;;5210656;27;20241;-89
2024/04/18 09:00:47;;;;;;;7.03;3.22;;;9.20;99.90;;;;;;5210086;27;20344;-90
2024/04/18 09:03:18;;;;;;;5.47;4.55;;;9.40;99.90;;;;;;5211129;27;20249;-89
2024/04/18 09:05:48;;;;;;;4.50;4.05;;;9.60;99.90;;;;;;5210914;27;20257;-90
2024/04/18 09:08:17;;;;;;;5.60;4.25;;;9.70;99.90;;;;;;5208145;27;20361;-90
2024/04/18 09:10:46;;;;;;;6.40;4.00;;;9.90;99.90;;;;;;5210707;27;20642;-90
2024/04/18 09:13:15;;;;;;;10.32;4.72;;;10.00;99.90;;;;;;5210901;27;20245;-90
2024/04/18 09:15:44;;;;;;;5.13;3.88;;;10.10;99.90;;;;;;5207964;27;20464;-90
2024/04/18 09:18:13;;;;;;;4.85;3.90;;;10.20;99.90;;;;;;5207292;27;20583;-90
2024/04/18 09:20:45;;;;;;;6.72;4.28;;;10.20;99.90;;;;;;5204821;27;20253;-90
2024/04/18 09:23:14;;;;;;;6.63;3.67;;;10.30;99.90;;;;;;5210437;27;20249;-90
2024/04/18 09:25:44;;;;;;;4.82;4.05;;;10.50;99.90;;;;;;5211110;27;20245;-90
2024/04/18 09:28:10;;;;;;;4.45;2.92;;;10.90;99.90;;;;;;5210306;27;20750;-90
2024/04/18 09:30:39;;;;;;;3.97;3.55;;;11.00;99.90;;;;;;5210409;27;20739;-90
2024/04/18 09:33:09;;;;;;;4.85;3.70;;;11.20;99.90;;;;;;5210596;27;20279;-90
2024/04/18 09:35:38;;;;;;;4.68;3.60;;;11.40;99.90;;;;;;5210795;27;20257;-91
2024/04/18 09:38:13;;;;;;;5.07;4.00;;;11.50;99.90;;;;;;5210551;27;20361;-89
2024/04/18 09:40:46;;;;;;;6.63;4.22;;;11.50;99.90;;;;;;5209657;27;20340;-90
2024/04/18 09:43:24;;;;;;;4.95;3.90;;;11.40;99.90;;;;;;5210926;27;20249;-90
2024/04/18 09:46:03;;;;;;;6.22;3.55;;;11.30;99.90;;;;;;5198641;27;20290;-89
2024/04/18 09:48:32;;;;;;;3.78;3.00;;;11.10;99.90;;;;;;5208475;27;20279;-90
2024/04/18 09:51:03;;;;;;;3.88;2.50;;;10.80;99.90;;;;;;5210705;27;20300;-91
2024/04/18 09:53:35;;;;;;;3.70;2.30;;;10.50;99.90;;;;;;5206513;27;20279;-91
2024/04/18 09:56:04;;;;;;;3.63;2.65;;;10.00;99.90;;;;;;5199519;27;20262;-90
2024/04/18 09:58:34;;;;;;;3.95;2.45;;;9.70;99.90;;;;;;5213627;27;20252;-91
2024/04/18 10:01:04;;;;;;;4.15;2.70;;;9.30;99.90;;;;;;5210263;27;20358;-91
2024/04/18 10:03:33;;;;;;;3.35;2.50;;;8.90;99.90;;;;;;5209154;27;20261;-91
2024/04/18 10:06:06;;;;;;;8.82;4.72;;;8.70;99.90;;;;;;5210324;27;20303;-90
2024/04/18 10:08:41;;;;;;;7.72;4.53;;;8.40;99.90;;;;;;5202299;27;20248;-91
2024/04/18 10:11:11;;;;;;;9.43;5.30;;;8.20;99.90;;;;;;5210641;27;20275;-91
2024/04/18 10:13:40;;;;;;;7.82;4.55;;;8.20;99.90;;;;;;5211976;27;20827;-90
2024/04/18 10:16:11;;;;;;;5.88;3.90;;;8.20;99.90;;;;;;5198412;27;20257;-91
2024/04/18 10:18:41;;;;;;;7.43;3.60;;;8.10;99.90;;;;;;5207981;27;20257;-91
2024/04/18 10:21:11;;;;;;;4.47;3.10;;;8.40;99.90;;;;;;5208330;27;20623;-91
2024/04/18 10:23:49;;;;;;;5.55;4.05;;;8.60;99.90;;;;;;5210244;27;20245;-91
2024/04/18 10:26:18;;;;;;;7.88;3.85;;;8.60;99.90;;;;;;5209763;27;20619;-91
2024/04/18 10:28:49;;;;;;;7.63;4.13;;;8.70;99.90;;;;;;5211669;27;20655;-91
2024/04/18 10:31:16;;;;;;;6.35;4.05;;;8.80;99.90;;;;;;5207899;27;20284;-90
2024/04/18 10:33:46;;;;;;;7.18;4.30;;;9.00;99.90;;;;;;5198887;27;20772;-91
2024/04/18 10:36:16;;;;;;;6.47;4.32;;;9.30;99.90;;;;;;5206607;27;20666;-91
2024/04/18 10:38:49;;;;;;;5.00;3.92;;;9.60;99.90;;;;;;5209935;27;20249;-90
2024/04/18 10:41:19;;;;;;;8.77;4.03;;;9.90;99.90;;;;;;5208364;27;20241;-90
2024/04/18 10:43:49;;;;;;;9.52;4.10;;;10.10;99.90;;;;;;5207306;27;20245;-91
2024/04/18 10:46:19;;;;;;;6.13;4.43;;;10.10;99.90;;;;;;5209442;27;20257;-90
2024/04/18 10:48:53;;;;;;;7.70;4.32;;;10.10;99.90;;;;;;5211990;27;20368;-90
2024/04/18 10:51:23;;;;;;;7.60;4.43;;;10.20;99.90;;;;;;5209926;27;20363;-90
2024/04/18 10:53:54;;;;;;;5.43;3.78;;;10.20;99.90;;;;;;5209154;27;20360;-91
2024/04/18 10:56:23;;;;;;;6.45;4.30;;;10.40;99.90;;;;;;5209573;27;20830;-90
2024/04/18 10:58:52;;;;;;;5.47;4.38;;;10.50;99.90;;;;;;5206963;27;20275;-90
2024/04/18 11:01:22;;;;;;;8.00;4.88;;;10.60;99.90;;;;;;5208843;27;20261;-91
2024/04/18 11:03:54;;;;;;;5.82;4.68;;;10.70;99.90;;;;;;5202743;27;20563;-90
2024/04/18 11:06:23;;;;;;;6.75;4.57;;;10.80;99.90;;;;;;5208870;27;20282;-91
2024/04/18 11:08:55;;;;;;;6.13;4.75;;;11.00;99.90;;;;;;5209769;27;20283;-90
2024/04/18 11:11:27;;;;;;;5.65;4.20;;;11.20;99.90;;;;;;5198346;27;20348;-90
2024/04/18 11:13:57;;;;;;;7.72;5.05;;;11.40;99.90;;;;;;5209254;27;20846;-90
2024/04/18 11:16:27;;;;;;;7.82;4.82;;;11.60;99.90;;;;;;5209126;27;20249;-90
2024/04/18 11:18:56;;;;;;;6.05;4.50;;;11.60;99.90;;;;;;5208032;27;20280;-90
2024/04/18 11:21:27;;;;;;;7.88;4.28;;;11.70;99.90;;;;;;5194365;27;20341;-91
2024/04/18 11:23:58;;;;;;;6.80;4.78;;;11.60;99.90;;;;;;5211667;27;20241;-91
2024/04/18 11:26:29;;;;;;;8.63;4.90;;;11.40;99.90;;;;;;5211305;27;20257;-92
2024/04/18 11:28:59;;;;;;;9.85;4.75;;;11.00;99.90;;;;;;5217319;27;20300;-93
2024/04/18 11:31:25;;;;;;;4.32;3.78;;;10.70;99.90;;;;;;5216093;27;20316;-92
2024/04/18 11:33:55;;;;;;;5.90;4.18;;;10.50;99.90;;;;;;5211839;27;20727;-91
2024/04/18 11:36:24;;;;;;;5.55;4.13;;;10.20;99.90;;;;;;5202419;27;20245;-89
2024/04/18 11:38:53;;;;;;;14.30;7.90;;;10.10;99.90;;;;;;5198126;27;20245;-91
2024/04/18 11:41:24;;;;;;;12.07;7.82;;;10.00;99.90;;;;;;5203165;27;20362;-91
2024/04/18 11:43:53;;;;;;;6.93;5.35;;;9.90;99.90;;;;;;5206747;27;20568;-92
2024/04/18 11:46:22;;;;;;;4.32;3.92;;;9.80;99.90;;;;;;5204794;27;20351;-90
2024/04/18 11:48:54;;;;;;;5.90;4.10;;;9.80;99.90;;;;;;5207328;27;20291;-91
2024/04/18 11:51:23;;;;;;;6.43;4.95;;;9.70;99.90;;;;;;5205542;27;20249;-91
2024/04/18 11:53:52;;;;;;;6.35;4.00;;;9.80;99.90;;;;;;5207680;27;20247;-91
2024/04/18 11:56:27;;;;;;;6.97;4.72;;;10.00;99.90;;;;;;5208305;27;20359;-91
2024/04/18 11:58:58;;;;;;;5.28;3.95;;;10.20;99.90;;;;;;5203058;27;20617;-90
2024/04/18 12:01:27;;;;;;;5.18;3.70;;;10.30;99.90;;;;;;5208108;27;20247;-90
2024/04/18 12:03:56;;;;;;;4.53;3.75;;;10.20;99.90;;;;;;5205277;27;20257;-89
2024/04/18 12:06:23;;;;;;;4.35;3.17;;;10.20;99.90;;;;;;5205871;27;20283;-90
2024/04/18 12:08:53;;;;;;;4.18;3.05;;;10.20;99.90;;;;;;5212560;27;20242;-89
2024/04/18 12:11:25;;;;;;;5.97;5.20;;;10.30;99.90;;;;;;5207911;27;20245;-89
2024/04/18 12:13:54;;;;;;;6.05;4.25;;;10.50;99.90;;;;;;5208864;27;20786;-89
2024/04/18 12:16:24;;;;;;;4.93;3.70;;;10.70;99.90;;;;;;5207561;27;20289;-90
2024/04/18 12:18:53;;;;;;;5.70;3.80;;;10.90;99.90;;;;;;5204822;27;20294;-90
2024/04/18 12:21:22;;;;;;;4.28;3.40;;;11.20;99.90;;;;;;5211604;27;20691;-87
2024/04/18 12:23:51;;;;;;;4.50;3.13;;;11.90;99.90;;;;;;5209356;27;20244;-84
2024/04/18 12:26:20;;;;;;;5.03;3.92;;;12.50;99.90;;;;;;5207052;27;20266;-85
2024/04/18 12:28:52;;;;;;;4.43;3.80;;;13.20;99.90;;;;;;5212844;27;20305;-86
2024/04/18 12:31:21;;;;;;;4.53;3.22;;;14.10;99.90;;;;;;5213322;27;20245;-85
2024/04/18 12:33:50;;;;;;;4.38;3.95;;;14.90;99.90;;;;;;5208658;27;20241;-86
2024/04/18 12:36:21;;;;;;;2.78;2.58;;;15.60;99.90;;;;;;5206969;27;20313;-86
2024/04/18 12:38:49;;;;;;;3.13;2.70;;;16.10;99.90;;;;;;5202445;27;20233;-87
2024/04/18 12:41:18;;;;;;;3.03;2.63;;;16.60;99.90;;;;;;5188796;27;20285;-86
2024/04/18 12:43:47;;;;;;;3.42;3.13;;;17.20;99.90;;;;;;5198915;27;20376;-86
2024/04/18 12:46:16;;;;;;;4.00;3.22;;;17.60;99.90;;;;;;5204732;27;20389;-87
2024/04/18 12:48:45;;;;;;;2.63;2.42;;;17.90;99.90;;;;;;5208936;27;20241;-87
2024/04/18 12:51:14;;;;;;;2.83;2.20;;;18.40;99.90;;;;;;5209474;27;20361;-87
2024/04/18 12:53:43;;;;;;;4.35;2.25;;;18.30;98.10;;;;;;5205475;27;20402;-87
2024/04/18 20:04:55;;;;;;;5.22;3.13;;;8.40;99.90;;;;;;4141304;21;20693;-91
2024/04/18 20:07:22;;;;;;;4.63;3.28;;;8.30;99.90;;;;;;5201769;27;20287;-88
2024/04/18 20:09:51;;;;;;;4.93;2.83;;;8.20;99.90;;;;;;5194321;27;20631;-89
2024/04/18 20:12:18;;;;;;;3.63;3.08;;;8.20;99.90;;;;;;5211179;27;20277;-91
2024/04/18 20:14:49;;;;;;;7.25;3.28;;;8.20;99.90;;;;;;5211131;27;20249;-90
2024/04/18 20:17:15;;;;;;;4.57;3.40;;;8.30;99.90;;;;;;5209233;27;20253;-89
2024/04/18 20:19:44;;;;;;;4.43;3.10;;;8.20;99.90;;;;;;5211032;27;20241;-89
2024/04/18 20:22:14;;;;;;;3.88;3.20;;;8.10;99.90;;;;;;5208902;27;20291;-89
2024/04/18 20:24:43;;;;;;;5.32;3.17;;;8.00;99.90;;;;;;5202783;27;20261;-90
2024/04/18 20:27:09;;;;;;;4.10;3.03;;;7.90;99.90;;;;;;5209833;27;20272;-88
2024/04/18 20:29:38;;;;;;;3.50;2.80;;;7.90;99.90;;;;;;5208222;27;20244;-89
2024/04/18 20:32:05;;;;;;;4.43;3.05;;;7.90;99.90;;;;;;5209230;27;20246;-91
2024/04/18 20:34:34;;;;;;;4.47;3.00;;;7.90;99.90;;;;;;5206696;27;20789;-90
2024/04/18 20:37:00;;;;;;;5.20;3.65;;;7.90;99.90;;;;;;5210230;27;20519;-91
2024/04/18 20:39:32;;;;;;;4.43;3.30;;;7.90;99.90;;;;;;5212263;27;20296;-89
2024/04/18 20:41:58;;;;;;;4.70;2.80;;;7.90;99.90;;;;;;5210664;27;20360;-89
2024/04/18 20:44:27;;;;;;;5.15;3.13;;;7.80;99.90;;;;;;5212830;27;20311;-89
2024/04/18 20:46:54;;;;;;;4.03;3.08;;;7.80;99.90;;;;;;5211810;27;20241;-89
2024/04/18 20:49:23;;;;;;;4.72;3.33;;;7.70;99.90;;;;;;5211945;27;20241;-88
2024/04/18 20:51:50;;;;;;;4.95;3.67;;;7.60;99.90;;;;;;5210503;27;20283;-89
2024/04/18 20:54:19;;;;;;;6.22;3.75;;;7.60;99.90;;;;;;5212057;27;20320;-89
2024/04/18 20:56:50;;;;;;;4.82;3.28;;;7.60;99.90;;;;;;5209477;27;20814;-89
2024/04/18 20:59:19;;;;;;;4.22;3.35;;;7.60;99.90;;;;;;5212202;27;20586;-89
2024/04/18 21:01:45;;;;;;;4.80;3.13;;;7.60;99.90;;;;;;5206876;27;20289;-89
2024/04/18 21:04:15;;;;;;;4.38;2.92;;;7.60;99.90;;;;;;5202468;27;20245;-90
2024/04/18 21:06:41;;;;;;;4.15;3.03;;;7.60;99.90;;;;;;5211920;27;20241;-90